createdAt,value
2018-08-07T00:01:42.027Z,19.40
2018-08-07T00:04:09.849Z,19.40
2018-08-07T00:06:37.798Z,19.30
2018-08-07T00:09:09.039Z,19.20
2018-08-07T00:11:36.958Z,19.20
2018-08-07T00:14:04.904Z,19.20
2018-08-07T00:16:32.784Z,19.10
2018-08-07T00:19:00.638Z,19.00
2018-08-07T00:21:28.504Z,18.90
2018-08-07T00:23:56.415Z,18.90
2018-08-07T00:26:24.434Z,18.80
2018-08-07T00:28:52.428Z,18.80
2018-08-07T00:31:20.334Z,18.70
2018-08-07T00:33:48.226Z,18.70
2018-08-07T00:36:16.105Z,18.70
2018-08-07T00:38:44.035Z,18.70
2018-08-07T00:41:11.959Z,18.70
2018-08-07T00:43:39.899Z,18.70
2018-08-07T00:46:07.815Z,18.70
2018-08-07T00:48:35.765Z,18.70
2018-08-07T00:51:03.624Z,18.70
2018-08-07T00:53:31.494Z,18.70
2018-08-07T00:55:59.372Z,18.70
2018-08-07T00:58:27.259Z,18.70
2018-08-07T01:00:55.099Z,18.70
2018-08-07T01:03:22.953Z,18.70
2018-08-07T01:05:50.809Z,18.70
2018-08-07T01:08:18.655Z,18.80
2018-08-07T01:10:46.504Z,18.80
2018-08-07T01:13:14.341Z,18.80
2018-08-07T01:15:42.210Z,18.80
2018-08-07T01:18:10.075Z,18.80
2018-08-07T01:20:37.919Z,18.80
2018-08-07T01:23:05.837Z,18.70
2018-08-07T01:25:33.763Z,18.70
2018-08-07T01:28:01.627Z,18.60
2018-08-07T01:30:29.929Z,18.60
2018-08-07T01:32:58.085Z,18.50
2018-08-07T01:35:27.593Z,18.50
2018-08-07T01:37:55.460Z,18.50
2018-08-07T01:40:23.401Z,18.40
2018-08-07T01:42:51.303Z,18.50
2018-08-07T01:45:19.098Z,18.50
2018-08-07T01:47:46.934Z,18.40
2018-08-07T01:50:15.487Z,18.40
2018-08-07T01:52:43.417Z,18.40
2018-08-07T01:55:21.658Z,18.40
2018-08-07T01:57:49.588Z,18.40
2018-08-07T02:00:17.596Z,18.40
2018-08-07T02:02:45.483Z,18.30
2018-08-07T02:05:13.415Z,18.20
2018-08-07T02:07:42.044Z,18.20
2018-08-07T02:10:15.040Z,18.20
2018-08-07T02:12:42.975Z,18.20
2018-08-07T02:15:11.806Z,18.20
2018-08-07T02:17:39.738Z,18.20
2018-08-07T02:20:11.531Z,18.20
2018-08-07T02:22:40.179Z,18.20
2018-08-07T02:25:10.221Z,18.20
2018-08-07T02:27:38.103Z,18.20
2018-08-07T02:30:08.319Z,18.20
2018-08-07T02:32:36.677Z,18.20
2018-08-07T02:35:05.661Z,18.20
2018-08-07T02:37:33.607Z,18.20
2018-08-07T02:40:01.533Z,18.20
2018-08-07T02:42:29.415Z,18.20
2018-08-07T02:44:57.257Z,18.30
2018-08-07T02:47:25.144Z,18.30
2018-08-07T02:49:53.162Z,18.30
2018-08-07T02:52:21.069Z,18.30
2018-08-07T02:54:49.027Z,18.40
2018-08-07T02:59:44.696Z,18.40
2018-08-07T03:02:12.595Z,18.40
2018-08-07T03:04:40.718Z,18.40
2018-08-07T03:07:08.650Z,18.40
2018-08-07T03:09:36.523Z,18.40
2018-08-07T03:12:04.608Z,18.40
2018-08-07T03:14:32.499Z,18.40
2018-08-07T03:17:00.345Z,18.30
2018-08-07T03:19:28.222Z,18.40
2018-08-07T03:21:56.133Z,18.40
2018-08-07T03:24:23.959Z,18.40
2018-08-07T03:26:51.811Z,18.40
2018-08-07T03:29:19.655Z,18.50
2018-08-07T03:31:47.495Z,18.50
2018-08-07T03:34:15.329Z,18.50
2018-08-07T03:36:43.167Z,18.50
2018-08-07T03:39:12.911Z,18.40
2018-08-07T03:41:40.906Z,18.40
2018-08-07T03:44:09.383Z,18.40
2018-08-07T03:46:37.400Z,18.40
2018-08-07T03:49:05.852Z,18.40
2018-08-07T03:51:33.697Z,18.40
2018-08-07T03:54:01.657Z,18.50
2018-08-07T03:56:29.575Z,18.50
2018-08-07T03:58:57.673Z,18.60
2018-08-07T04:01:25.619Z,18.60
2018-08-07T04:03:53.610Z,18.60
2018-08-07T04:06:21.486Z,18.60
2018-08-07T04:08:49.339Z,18.70
2018-08-07T04:11:17.401Z,18.70
2018-08-07T04:13:45.363Z,18.80
2018-08-07T04:16:13.278Z,18.80
2018-08-07T04:18:41.169Z,18.90
2018-08-07T04:21:09.051Z,19.00
2018-08-07T04:23:37.007Z,19.00
2018-08-07T04:26:04.930Z,19.00
2018-08-07T04:28:32.879Z,19.00
2018-08-07T04:31:00.778Z,19.10
2018-08-07T04:33:28.691Z,19.10
2018-08-07T04:35:56.544Z,19.10
2018-08-07T04:38:24.467Z,19.20
2018-08-07T04:40:52.367Z,19.20
2018-08-07T04:43:20.201Z,19.30
2018-08-07T04:45:48.221Z,19.30
2018-08-07T04:48:16.043Z,19.40
2018-08-07T04:50:43.991Z,19.50
2018-08-07T04:53:11.886Z,19.50
2018-08-07T04:55:39.726Z,19.60
2018-08-07T04:58:07.735Z,19.70
2018-08-07T05:00:35.490Z,19.70
2018-08-07T05:03:03.342Z,19.70
2018-08-07T05:05:31.275Z,19.80
2018-08-07T05:07:59.167Z,19.80
2018-08-07T05:10:27.018Z,19.90
2018-08-07T05:12:54.818Z,20.00
2018-08-07T05:15:22.663Z,20.00
2018-08-07T05:17:50.514Z,20.20
2018-08-07T05:20:18.306Z,20.80
2018-08-07T05:22:46.150Z,22.50
2018-08-07T05:25:13.962Z,25.00
2018-08-07T05:27:41.733Z,27.20
2018-08-07T05:30:12.090Z,28.80
2018-08-07T05:32:39.901Z,30.20
2018-08-07T05:35:08.443Z,31.20
2018-08-07T05:37:36.361Z,32.00
2018-08-07T05:40:04.485Z,32.80
2018-08-07T05:42:32.419Z,33.50
2018-08-07T05:45:00.261Z,33.80
2018-08-07T05:47:28.019Z,33.90
2018-08-07T05:49:55.868Z,34.30
2018-08-07T05:52:23.746Z,34.80
2018-08-07T05:54:51.610Z,35.40
2018-08-07T05:57:19.466Z,35.90
2018-08-07T05:59:47.264Z,36.30
2018-08-07T06:02:15.383Z,36.60
2018-08-07T06:04:43.275Z,36.80
2018-08-07T06:07:11.153Z,37.10
2018-08-07T06:09:39.030Z,37.30
2018-08-07T06:12:06.863Z,37.60
2018-08-07T06:14:34.666Z,37.60
2018-08-07T06:17:02.491Z,37.70
2018-08-07T06:19:30.326Z,38.00
2018-08-07T06:21:58.168Z,38.00
2018-08-07T06:24:26.037Z,38.00
2018-08-07T06:26:53.882Z,38.20
2018-08-07T06:29:21.706Z,38.20
2018-08-07T06:31:49.535Z,38.20
2018-08-07T06:34:17.305Z,38.20
2018-08-07T06:36:45.256Z,38.30
2018-08-07T06:39:13.039Z,38.50
2018-08-07T06:41:40.891Z,38.60
2018-08-07T06:44:08.733Z,38.50
2018-08-07T06:46:36.594Z,38.60
2018-08-07T06:49:04.720Z,38.40
2018-08-07T06:51:32.616Z,38.40
2018-08-07T06:54:00.428Z,38.30
2018-08-07T06:56:28.327Z,38.40
2018-08-07T06:58:56.115Z,38.50
2018-08-07T07:01:24.028Z,38.50
2018-08-07T07:03:52.430Z,38.50
2018-08-07T07:06:20.299Z,38.60
2018-08-07T07:11:16.056Z,38.50
2018-08-07T07:13:43.865Z,38.40
2018-08-07T07:16:11.607Z,38.40
2018-08-07T07:18:39.425Z,38.30
2018-08-07T07:21:07.464Z,38.20
2018-08-07T07:23:35.300Z,38.20
2018-08-07T07:26:03.179Z,38.30
2018-08-07T07:28:31.033Z,38.20
2018-08-07T07:30:58.890Z,38.00
2018-08-07T07:33:26.674Z,37.80
2018-08-07T07:35:54.435Z,37.60
2018-08-07T07:38:22.210Z,37.40
2018-08-07T07:40:50.025Z,37.30
2018-08-07T07:43:17.766Z,37.10
2018-08-07T07:45:45.645Z,37.10
2018-08-07T07:48:13.490Z,36.90
2018-08-07T07:50:41.324Z,36.90
2018-08-07T07:53:09.239Z,36.90
2018-08-07T07:55:37.066Z,36.80
2018-08-07T07:58:04.880Z,36.70
2018-08-07T08:00:32.677Z,36.70
2018-08-07T08:03:00.443Z,36.70
2018-08-07T08:05:28.382Z,36.70
2018-08-07T08:07:56.291Z,36.90
2018-08-07T08:10:24.227Z,37.00
2018-08-07T08:12:52.175Z,37.20
2018-08-07T08:15:19.981Z,37.30
2018-08-07T08:17:48.525Z,37.40
2018-08-07T08:20:20.587Z,37.40
2018-08-07T08:22:49.205Z,37.50
2018-08-07T08:27:44.931Z,37.60
2018-08-07T08:30:14.473Z,37.60
2018-08-07T08:32:42.845Z,37.70
2018-08-07T08:35:12.944Z,37.90
2018-08-07T08:37:41.267Z,38.00
2018-08-07T08:40:13.451Z,38.20
2018-08-07T08:42:41.229Z,38.40
2018-08-07T08:45:14.733Z,38.60
2018-08-07T08:47:43.352Z,38.70
2018-08-07T08:50:13.760Z,38.70
2018-08-07T08:53:05.435Z,38.80
2018-08-07T08:55:33.295Z,39.00
2018-08-07T08:58:01.148Z,39.20
2018-08-07T09:00:32.936Z,39.50
2018-08-07T09:03:02.335Z,39.60
2018-08-07T09:05:30.588Z,39.70
2018-08-07T09:07:58.454Z,40.10
2018-08-07T09:10:28.378Z,40.30
2018-08-07T09:12:56.989Z,40.50
2018-08-07T09:15:55.231Z,40.70
2018-08-07T09:18:33.391Z,41.00
2018-08-07T09:21:01.314Z,41.40
2018-08-07T09:23:29.119Z,41.60
2018-08-07T09:25:57.082Z,41.70
2018-08-07T09:28:24.831Z,41.90
2018-08-07T09:30:52.562Z,41.90
2018-08-07T09:33:45.933Z,42.00
2018-08-07T09:36:13.722Z,42.10
2018-08-07T09:38:41.548Z,42.30
2018-08-07T09:44:16.280Z,42.60
2018-08-07T09:46:44.185Z,42.80
2018-08-07T09:49:11.973Z,42.90
2018-08-07T09:51:39.752Z,42.90
2018-08-07T09:54:07.577Z,43.10
2018-08-07T09:56:35.358Z,43.30
2018-08-07T09:59:03.111Z,43.30
2018-08-07T10:01:31.618Z,43.30
2018-08-07T10:04:00.155Z,43.30
2018-08-07T10:08:55.958Z,43.60
2018-08-07T10:11:23.782Z,43.70
2018-08-07T10:13:56.383Z,43.80
2018-08-07T10:16:24.221Z,43.70
2018-08-07T10:18:52.009Z,43.80
2018-08-07T10:21:19.833Z,43.80
2018-08-07T10:23:47.599Z,43.70
2018-08-07T10:26:21.834Z,43.60
2018-08-07T10:28:49.713Z,43.50
2018-08-07T10:31:17.505Z,43.60
2018-08-07T10:33:45.302Z,43.60
2018-08-07T10:36:13.048Z,43.60
2018-08-07T10:38:40.971Z,43.60
2018-08-07T10:41:08.784Z,43.60
2018-08-07T10:43:36.642Z,43.50
2018-08-07T10:46:04.343Z,43.50
2018-08-07T10:48:32.258Z,43.50
2018-08-07T10:51:00.118Z,43.40
2018-08-07T10:53:27.882Z,43.50
2018-08-07T10:55:55.735Z,43.60
2018-08-07T10:58:23.552Z,43.60
2018-08-07T11:00:51.316Z,43.60
2018-08-07T11:03:19.087Z,43.60
2018-08-07T11:05:46.888Z,43.60
2018-08-07T11:08:14.595Z,43.50
2018-08-07T11:10:42.309Z,43.20
2018-08-07T11:13:10.037Z,43.00
2018-08-07T11:15:37.851Z,42.90
2018-08-07T11:18:05.859Z,42.80
2018-08-07T11:20:33.671Z,42.70
2018-08-07T11:23:02.151Z,42.80
2018-08-07T11:25:30.642Z,42.80
2018-08-07T11:27:58.695Z,42.80
2018-08-07T11:30:27.577Z,42.70
2018-08-07T11:32:56.511Z,42.80
2018-08-07T11:35:24.939Z,43.00
2018-08-07T11:37:54.550Z,43.30
2018-08-07T11:40:22.946Z,43.30
2018-08-07T11:42:51.177Z,43.40
2018-08-07T11:45:20.454Z,43.20
2018-08-07T11:50:17.924Z,43.50
2018-08-07T11:52:45.536Z,43.30
2018-08-07T11:55:14.610Z,43.40
2018-08-07T11:57:42.525Z,43.50
2018-08-07T12:00:29.387Z,43.50
2018-08-07T12:02:56.995Z,43.50
2018-08-07T12:05:24.592Z,43.40
2018-08-07T12:07:52.399Z,43.50
2018-08-07T12:10:20.326Z,43.50
2018-08-07T12:12:47.942Z,43.50
2018-08-07T12:15:18.314Z,43.40
2018-08-07T12:17:46.173Z,43.40
2018-08-07T12:20:13.796Z,43.40
2018-08-07T12:22:41.405Z,43.30
2018-08-07T12:25:11.074Z,43.40
2018-08-07T12:27:38.713Z,43.50
2018-08-07T12:30:15.453Z,43.50
2018-08-07T12:32:43.097Z,43.70
2018-08-07T12:37:55.262Z,43.60
2018-08-07T12:40:25.472Z,43.50
2018-08-07T12:42:58.164Z,43.50
2018-08-07T12:45:25.756Z,43.40
2018-08-07T12:47:53.361Z,43.50
2018-08-07T12:50:20.943Z,43.50
2018-08-07T12:52:48.537Z,43.60
2018-08-07T12:55:20.793Z,43.60
2018-08-07T12:57:48.815Z,43.60
2018-08-07T13:00:19.004Z,43.80
2018-08-07T13:02:46.580Z,43.90
2018-08-07T13:05:14.184Z,44.10
2018-08-07T13:07:41.776Z,44.30
2018-08-07T13:10:11.838Z,44.50
2018-08-07T13:12:40.122Z,44.40
2018-08-07T13:15:09.456Z,44.70
2018-08-07T13:17:37.129Z,44.70
2018-08-07T13:20:06.007Z,44.70
2018-08-07T13:22:34.037Z,44.70
2018-08-07T13:25:01.625Z,44.80
2018-08-07T13:27:29.482Z,44.90
2018-08-07T13:29:57.073Z,44.70
2018-08-07T13:32:24.673Z,44.50
2018-08-07T13:34:52.274Z,44.50
2018-08-07T13:37:19.914Z,44.60
2018-08-07T13:39:47.450Z,44.70
2018-08-07T13:42:15.063Z,44.50
2018-08-07T13:44:42.630Z,44.50
2018-08-07T13:47:10.268Z,44.50
2018-08-07T13:49:37.857Z,44.20
2018-08-07T13:52:05.454Z,44.10
2018-08-07T13:54:32.996Z,44.00
2018-08-07T13:57:00.551Z,43.90
2018-08-07T13:59:28.101Z,43.60
2018-08-07T14:01:55.682Z,43.60
2018-08-07T14:04:23.220Z,43.70
2018-08-07T14:06:50.775Z,43.90
2018-08-07T14:09:18.332Z,43.90
2018-08-07T14:11:45.866Z,43.60
2018-08-07T14:14:13.392Z,43.60
2018-08-07T14:16:40.928Z,43.60
2018-08-07T14:19:08.466Z,43.60
2018-08-07T14:21:36.201Z,43.20
2018-08-07T14:24:03.763Z,43.00
2018-08-07T14:26:31.324Z,43.10
2018-08-07T14:28:58.853Z,43.30
2018-08-07T14:31:26.698Z,43.40
2018-08-07T14:33:54.252Z,43.20
2018-08-07T14:36:21.806Z,43.00
2018-08-07T14:38:49.381Z,42.80
2018-08-07T14:41:16.922Z,42.60
2018-08-07T14:43:44.482Z,42.40
2018-08-07T14:46:12.027Z,42.30
2018-08-07T14:48:39.611Z,42.20
2018-08-07T14:51:07.309Z,42.20
2018-08-07T14:53:34.907Z,42.30
2018-08-07T14:56:02.482Z,42.40
2018-08-07T14:58:30.066Z,42.60
2018-08-07T15:00:57.617Z,42.70
2018-08-07T15:03:25.184Z,42.60
2018-08-07T15:05:52.754Z,42.70
2018-08-07T15:08:20.318Z,42.70
2018-08-07T15:10:47.890Z,42.80
2018-08-07T15:13:15.491Z,42.60
2018-08-07T15:15:43.040Z,42.50
2018-08-07T15:18:10.604Z,42.40
2018-08-07T15:20:38.185Z,42.40
2018-08-07T15:23:06.069Z,42.30
2018-08-07T15:25:33.590Z,42.20
2018-08-07T15:28:01.116Z,42.10
2018-08-07T15:30:32.141Z,41.90
2018-08-07T15:32:59.678Z,41.80
2018-08-07T15:35:28.442Z,41.90
2018-08-07T15:37:56.520Z,42.00
2018-08-07T15:40:24.066Z,42.00
2018-08-07T15:42:51.641Z,42.00
2018-08-07T15:45:20.971Z,41.90
2018-08-07T15:47:48.661Z,41.80
2018-08-07T15:50:17.290Z,41.90
2018-08-07T15:52:48.309Z,41.70
2018-08-07T15:55:18.346Z,41.60
2018-08-07T15:57:45.892Z,41.50
2018-08-07T16:02:46.059Z,41.10
2018-08-07T16:05:13.601Z,40.90
2018-08-07T16:07:41.145Z,40.70
2018-08-07T16:10:12.162Z,40.30
2018-08-07T16:12:39.746Z,39.80
2018-08-07T16:15:07.298Z,39.40
2018-08-07T16:17:34.978Z,39.10
2018-08-07T16:20:02.522Z,39.10
2018-08-07T16:22:30.097Z,39.10
2018-08-07T16:24:57.682Z,39.20
2018-08-07T16:27:25.217Z,39.10
2018-08-07T16:29:52.791Z,38.90
2018-08-07T16:32:20.322Z,38.80
2018-08-07T16:34:47.840Z,38.60
2018-08-07T16:37:15.385Z,38.30
2018-08-07T16:39:42.930Z,38.00
2018-08-07T16:42:20.468Z,37.80
2018-08-07T16:44:48.014Z,37.50
2018-08-07T16:47:15.566Z,37.20
2018-08-07T16:49:43.393Z,36.90
2018-08-07T16:52:10.934Z,36.60
2018-08-07T16:54:38.479Z,36.30
2018-08-07T16:57:06.090Z,36.10
2018-08-07T16:59:33.577Z,35.80
2018-08-07T17:02:01.125Z,35.60
2018-08-07T17:04:28.674Z,35.40
2018-08-07T17:06:56.225Z,35.20
2018-08-07T17:09:23.782Z,35.10
2018-08-07T17:11:51.338Z,34.90
2018-08-07T17:14:18.860Z,34.70
2018-08-07T17:16:46.410Z,34.50
2018-08-07T17:19:13.941Z,34.30
2018-08-07T17:21:41.498Z,34.10
2018-08-07T17:24:09.045Z,34.00
2018-08-07T17:26:36.593Z,33.90
2018-08-07T17:29:04.420Z,33.70
2018-08-07T17:31:31.961Z,33.50
2018-08-07T17:33:59.510Z,33.40
2018-08-07T17:36:27.064Z,33.30
2018-08-07T17:38:54.614Z,33.20
2018-08-07T17:41:22.196Z,33.00
2018-08-07T17:43:49.752Z,32.90
2018-08-07T17:46:17.306Z,32.70
2018-08-07T17:48:44.846Z,32.60
2018-08-07T17:53:40.079Z,32.20
2018-08-07T17:56:07.679Z,32.10
2018-08-07T17:58:35.285Z,32.00
2018-08-07T18:01:02.891Z,31.80
2018-08-07T18:03:30.621Z,31.70
2018-08-07T18:05:58.230Z,31.50
2018-08-07T18:08:25.818Z,31.30
2018-08-07T18:10:53.413Z,31.10
2018-08-07T18:13:21.021Z,30.90
2018-08-07T18:15:48.600Z,30.70
2018-08-07T18:18:16.194Z,30.50
2018-08-07T18:20:43.802Z,30.30
2018-08-07T18:23:11.401Z,30.00
2018-08-07T18:25:38.978Z,29.80
2018-08-07T18:28:06.570Z,29.60
2018-08-07T18:30:34.138Z,29.40
2018-08-07T18:33:01.720Z,29.10
2018-08-07T18:35:29.309Z,28.90
2018-08-07T18:37:56.921Z,28.70
2018-08-07T18:40:24.520Z,28.50
2018-08-07T18:42:52.125Z,28.30
2018-08-07T18:45:19.722Z,28.20
2018-08-07T18:47:47.334Z,28.00
2018-08-07T18:50:18.011Z,27.90
2018-08-07T18:52:45.635Z,27.80
2018-08-07T18:55:14.031Z,27.70
2018-08-07T18:57:42.678Z,27.70
2018-08-07T19:00:16.379Z,27.60
2018-08-07T19:02:43.975Z,27.60
2018-08-07T19:05:14.104Z,27.60
2018-08-07T19:07:41.686Z,27.60
2018-08-07T19:10:10.211Z,27.60
2018-08-07T19:12:37.806Z,27.50
2018-08-07T19:15:05.739Z,27.50
2018-08-07T19:17:33.331Z,27.50
2018-08-07T19:20:00.918Z,27.50
2018-08-07T19:22:28.506Z,27.50
2018-08-07T19:24:56.130Z,27.40
2018-08-07T19:27:23.713Z,27.40
2018-08-07T19:29:51.318Z,27.40
2018-08-07T19:32:18.938Z,27.30
2018-08-07T19:34:46.534Z,27.30
2018-08-07T19:37:14.134Z,27.20
2018-08-07T19:39:41.755Z,27.20
2018-08-07T19:45:15.175Z,27.30
2018-08-07T19:47:43.723Z,27.30
2018-08-07T19:50:12.846Z,27.20
2018-08-07T19:52:40.472Z,27.20
2018-08-07T19:55:11.839Z,27.10
2018-08-07T19:57:39.514Z,27.10
2018-08-07T20:00:12.330Z,27.00
2018-08-07T20:02:39.946Z,26.90
2018-08-07T20:05:07.541Z,26.90
2018-08-07T20:07:35.126Z,26.90
2018-08-07T20:10:02.886Z,26.80
2018-08-07T20:12:30.466Z,26.90
2018-08-07T20:14:58.053Z,26.80
2018-08-07T20:17:25.679Z,26.80
2018-08-07T20:19:53.254Z,26.80
2018-08-07T20:22:20.854Z,26.80
2018-08-07T20:24:48.442Z,26.70
2018-08-07T20:27:16.026Z,26.70
2018-08-07T20:29:43.626Z,26.60
2018-08-07T20:32:11.310Z,26.60
2018-08-07T20:34:38.921Z,26.50
2018-08-07T20:37:06.831Z,26.40
2018-08-07T20:39:37.924Z,26.40
2018-08-07T20:42:05.639Z,26.40
2018-08-07T20:44:33.214Z,26.40
2018-08-07T20:47:00.829Z,26.30
2018-08-07T20:49:28.420Z,26.20
2018-08-07T20:51:56.028Z,26.20
2018-08-07T20:54:49.802Z,26.10
2018-08-07T20:57:17.402Z,26.00
2018-08-07T20:59:44.996Z,26.00
2018-08-07T21:02:12.581Z,25.90
2018-08-07T21:04:41.180Z,25.80
2018-08-07T21:07:12.835Z,25.70
2018-08-07T21:09:46.209Z,25.70
2018-08-07T21:12:13.810Z,25.60
2018-08-07T21:17:53.443Z,25.50
2018-08-07T21:20:21.871Z,25.50
2018-08-07T21:22:49.542Z,25.50
2018-08-07T21:25:19.154Z,25.50
2018-08-07T21:27:47.941Z,25.50
2018-08-07T21:30:19.086Z,25.50
2018-08-07T21:32:46.698Z,25.50
2018-08-07T21:35:14.323Z,25.50
2018-08-07T21:37:41.910Z,25.50
2018-08-07T21:40:13.854Z,25.50
2018-08-07T21:42:41.902Z,25.40
2018-08-07T21:45:09.537Z,25.30
2018-08-07T21:47:37.547Z,25.30
2018-08-07T21:50:08.948Z,25.20
2018-08-07T21:52:36.651Z,25.20
2018-08-07T21:55:05.146Z,25.10
2018-08-07T21:57:36.373Z,25.10
2018-08-07T22:00:40.879Z,25.10
2018-08-07T22:03:08.506Z,25.10
2018-08-07T22:05:36.106Z,25.00
2018-08-07T22:08:03.966Z,25.00
2018-08-07T22:10:31.587Z,25.00
2018-08-07T22:19:29.936Z,24.90
2018-08-07T22:21:57.485Z,24.80
2018-08-07T22:24:25.072Z,24.80
2018-08-07T22:26:52.666Z,24.70
2018-08-07T22:29:20.257Z,24.70
2018-08-07T22:31:47.847Z,24.70
2018-08-07T22:34:15.446Z,24.60
2018-08-07T22:36:43.038Z,24.60
2018-08-07T22:39:10.765Z,24.60
2018-08-07T22:41:38.365Z,24.60
2018-08-07T22:44:06.093Z,24.60
2018-08-07T22:46:33.854Z,24.60
2018-08-07T22:49:01.434Z,24.50
2018-08-07T22:51:29.018Z,24.50
2018-08-07T22:53:56.586Z,24.40
2018-08-07T22:56:24.121Z,24.30
2018-08-07T22:58:51.678Z,24.30
2018-08-07T23:01:19.224Z,24.20
2018-08-07T23:03:46.770Z,24.20
2018-08-07T23:06:14.298Z,24.20
2018-08-07T23:08:41.870Z,24.20
2018-08-07T23:11:09.414Z,24.20
2018-08-07T23:13:36.961Z,24.20
2018-08-07T23:16:04.704Z,24.20
2018-08-07T23:18:32.242Z,24.30
2018-08-07T23:20:59.781Z,24.30
2018-08-07T23:23:27.326Z,24.30
2018-08-07T23:25:54.874Z,24.30
2018-08-07T23:28:22.464Z,24.30
2018-08-07T23:30:49.980Z,24.30
2018-08-07T23:33:17.504Z,24.30
2018-08-07T23:35:45.045Z,24.30
2018-08-07T23:38:12.577Z,24.30
2018-08-07T23:40:40.104Z,24.30
2018-08-07T23:43:07.685Z,24.30
2018-08-07T23:45:35.236Z,24.20
2018-08-07T23:48:02.786Z,24.20
2018-08-07T23:51:00.342Z,24.20
2018-08-07T23:53:27.873Z,24.10
2018-08-07T23:55:55.412Z,24.10
2018-08-07T23:58:22.942Z,24.00
